Time;durP1;ratioP1;P1;durP2;ratioP2;P2;SDS_P1;SDS_P2;PMS_P1;PMS_P2;Temp;Humidity;BMP_temperature;BMP_pressure;BME280_temperature;BME280_humidity;BME280_pressure;Samples;Min_cycle;Max_cycle;Signal;HPM_P1;HPM_P2
2022/08/15 00:01:06;;;;;;;1.30;0.90;;;24.60;53.40;;;;;;6274187;22;20459;-72
2022/08/15 00:03:36;;;;;;;1.20;1.10;;;24.60;53.50;;;;;;6247537;22;20125;-73
2022/08/15 00:06:06;;;;;;;1.20;1.10;;;24.50;53.70;;;;;;6247157;22;20098;-72
2022/08/15 00:08:35;;;;;;;1.42;1.20;;;24.50;53.80;;;;;;6274517;22;20008;-72
2022/08/15 00:11:08;;;;;;;1.10;1.00;;;24.40;54.00;;;;;;6274067;22;20012;-72
2022/08/15 00:13:35;;;;;;;1.13;1.02;;;24.30;54.20;;;;;;6247216;22;20007;-72
2022/08/15 00:16:00;;;;;;;0.90;0.90;;;24.20;54.40;;;;;;6274270;22;20023;-72
2022/08/15 00:18:28;;;;;;;1.20;1.10;;;24.10;54.50;;;;;;6247378;22;20004;-72
2022/08/15 00:20:54;;;;;;;0.98;0.98;;;24.10;54.70;;;;;;6274299;22;20007;-72
2022/08/15 00:23:26;;;;;;;1.42;1.33;;;24.00;54.90;;;;;;6274191;22;20007;-72
2022/08/15 00:25:56;;;;;;;1.23;1.13;;;23.90;55.00;;;;;;6274460;22;20057;-72
2022/08/15 00:28:22;;;;;;;1.13;1.02;;;23.90;55.20;;;;;;6274471;22;20470;-72
2022/08/15 00:30:48;;;;;;;1.30;1.08;;;23.80;55.30;;;;;;6274823;22;20016;-72
2022/08/15 00:33:15;;;;;;;0.93;0.90;;;23.80;55.30;;;;;;6274143;22;20008;-72
2022/08/15 00:35:43;;;;;;;1.27;1.10;;;23.90;55.20;;;;;;6247422;22;20420;-72
2022/08/15 00:38:13;;;;;;;1.20;1.10;;;23.90;55.00;;;;;;6271297;22;20041;-72
2022/08/15 00:43:25;;;;;;;1.30;1.17;;;24.00;54.80;;;;;;6275679;22;20051;-72
2022/08/15 00:45:52;;;;;;;1.35;1.10;;;24.00;54.70;;;;;;6275744;22;20506;-72
2022/08/15 00:48:52;;;;;;;1.17;1.08;;;24.00;54.70;;;;;;6249703;22;20008;-72
2022/08/15 00:51:27;;;;;;;0.80;0.80;;;24.10;54.70;;;;;;6252710;22;20020;-72
2022/08/15 00:54:02;;;;;;;0.90;0.90;;;24.20;54.60;;;;;;6275303;22;20070;-72
2022/08/15 00:56:33;;;;;;;1.23;1.13;;;24.10;54.50;;;;;;6249752;22;20458;-72
2022/08/15 00:58:59;;;;;;;1.05;0.93;;;24.10;54.50;;;;;;6247191;22;20436;-72
2022/08/15 01:01:25;;;;;;;0.90;0.90;;;24.10;54.60;;;;;;6248510;22;20012;-72
2022/08/15 01:03:52;;;;;;;0.93;0.90;;;24.00;54.60;;;;;;6248449;22;20104;-72
2022/08/15 01:06:20;;;;;;;1.10;1.00;;;24.00;54.80;;;;;;6276091;22;20008;-72
2022/08/15 01:08:48;;;;;;;1.15;1.05;;;24.10;54.90;;;;;;6276059;22;20007;-72
2022/08/15 01:11:25;;;;;;;1.10;1.00;;;24.00;54.80;;;;;;6275194;22;20016;-72
2022/08/15 01:13:59;;;;;;;1.30;1.10;;;24.10;54.80;;;;;;6273952;22;20332;-72
2022/08/15 01:16:26;;;;;;;1.00;0.90;;;24.10;54.80;;;;;;6224887;22;20011;-72
2022/08/15 01:18:52;;;;;;;1.15;1.10;;;24.10;54.80;;;;;;6276052;22;20083;-72
2022/08/15 01:21:46;;;;;;;1.20;1.10;;;24.10;54.80;;;;;;6275259;22;20098;-72
2022/08/15 01:24:52;;;;;;;1.25;1.13;;;24.10;54.80;;;;;;6275633;22;20011;-72
2022/08/15 01:27:19;;;;;;;0.90;0.90;;;24.10;54.80;;;;;;6273086;22;20016;-72
2022/08/15 01:29:47;;;;;;;1.10;1.00;;;24.00;54.80;;;;;;6272387;22;20012;-72
2022/08/15 01:32:13;;;;;;;0.90;0.90;;;24.00;55.00;;;;;;6275379;22;20332;-72
2022/08/15 01:34:38;;;;;;;0.80;0.80;;;24.00;55.10;;;;;;6275276;22;20086;-72
2022/08/15 01:37:04;;;;;;;1.00;0.90;;;24.00;55.10;;;;;;6275243;22;20004;-72
2022/08/15 01:39:38;;;;;;;0.98;0.98;;;23.90;55.20;;;;;;6275605;22;20443;-72
2022/08/15 01:42:18;;;;;;;1.40;1.10;;;23.90;55.30;;;;;;6275391;22;20003;-72
2022/08/15 01:44:51;;;;;;;0.80;0.80;;;23.80;55.40;;;;;;6275235;22;20090;-72
2022/08/15 01:47:24;;;;;;;0.90;0.90;;;23.90;55.50;;;;;;6275171;22;20129;-72
2022/08/15 01:49:55;;;;;;;1.33;1.05;;;23.80;55.50;;;;;;6274231;22;20379;-72
2022/08/15 01:52:26;;;;;;;1.10;1.00;;;23.80;55.60;;;;;;6275914;22;20086;-72
2022/08/15 01:54:54;;;;;;;0.90;0.90;;;23.80;55.60;;;;;;6249512;22;20469;-72
2022/08/15 01:57:20;;;;;;;1.10;1.00;;;23.80;55.60;;;;;;6222947;22;20011;-72
2022/08/15 01:59:56;;;;;;;0.82;0.82;;;23.70;55.60;;;;;;6275685;22;20007;-72
2022/08/15 02:02:22;;;;;;;0.95;0.90;;;23.70;55.80;;;;;;6275252;22;20137;-72
2022/08/15 02:04:48;;;;;;;1.30;1.20;;;23.70;55.90;;;;;;6247914;22;20015;-72
2022/08/15 02:07:17;;;;;;;1.13;1.02;;;23.60;56.00;;;;;;6275523;22;20516;-72
2022/08/15 02:09:45;;;;;;;1.13;1.02;;;23.50;56.10;;;;;;6247856;22;20386;-72
2022/08/15 02:12:13;;;;;;;1.15;1.00;;;23.50;56.30;;;;;;6275036;22;20007;-72
2022/08/15 02:14:41;;;;;;;0.70;0.70;;;23.40;56.40;;;;;;6248835;22;20424;-72
2022/08/15 02:17:08;;;;;;;1.10;1.00;;;23.40;57.20;;;;;;6273022;22;20046;-73
2022/08/15 02:19:36;;;;;;;1.20;1.10;;;23.40;56.60;;;;;;6275196;22;20015;-72
2022/08/15 02:22:03;;;;;;;1.40;1.00;;;23.30;56.60;;;;;;6248208;22;20347;-72
2022/08/15 02:24:29;;;;;;;1.20;1.10;;;23.40;56.80;;;;;;6275145;22;20015;-72
2022/08/15 02:26:55;;;;;;;1.20;1.10;;;23.30;56.90;;;;;;6275784;22;20090;-73
2022/08/15 02:29:25;;;;;;;1.05;0.95;;;23.20;57.00;;;;;;6248173;22;20050;-73
2022/08/15 02:31:56;;;;;;;1.00;1.00;;;23.20;57.10;;;;;;6272296;22;20050;-72
2022/08/15 02:34:22;;;;;;;1.10;1.00;;;23.10;57.20;;;;;;6272160;22;20014;-74
2022/08/15 02:36:48;;;;;;;1.25;1.15;;;23.00;57.30;;;;;;6275567;22;20086;-72
2022/08/15 02:39:16;;;;;;;1.13;1.02;;;23.10;57.50;;;;;;6249248;22;20086;-72
2022/08/15 02:41:50;;;;;;;1.00;1.00;;;23.00;57.50;;;;;;6275201;22;20008;-74
2022/08/15 02:44:20;;;;;;;1.25;1.15;;;22.90;57.70;;;;;;6275813;22;20008;-72
2022/08/15 02:46:46;;;;;;;1.10;1.00;;;22.90;57.70;;;;;;6247808;22;20432;-72
2022/08/15 02:49:12;;;;;;;1.20;1.10;;;22.80;57.80;;;;;;6275617;22;20004;-72
2022/08/15 02:51:40;;;;;;;1.02;0.93;;;22.80;58.00;;;;;;6275453;22;20012;-72
2022/08/15 02:54:06;;;;;;;1.20;1.10;;;22.70;58.10;;;;;;6275310;22;20061;-73
2022/08/15 02:56:33;;;;;;;1.15;1.05;;;22.70;58.20;;;;;;6275252;22;20034;-73
2022/08/15 02:59:00;;;;;;;1.20;1.10;;;22.60;58.20;;;;;;6275028;22;20343;-73
2022/08/15 03:01:27;;;;;;;1.17;1.08;;;22.60;58.30;;;;;;6275174;22;20011;-73
2022/08/15 03:03:55;;;;;;;1.25;1.10;;;22.60;58.40;;;;;;6275385;22;20042;-72
2022/08/15 03:06:26;;;;;;;1.10;1.00;;;22.50;58.50;;;;;;6275550;22;20007;-74
2022/08/15 03:08:53;;;;;;;0.98;0.95;;;22.50;58.60;;;;;;6275269;22;20012;-72
2022/08/15 03:11:20;;;;;;;1.45;1.20;;;22.40;59.30;;;;;;6222353;22;20019;-72
2022/08/15 03:13:46;;;;;;;1.10;1.00;;;22.40;58.80;;;;;;6247610;22;20008;-72
2022/08/15 03:16:15;;;;;;;1.20;1.05;;;22.30;58.90;;;;;;6274824;22;20347;-72
2022/08/15 03:18:42;;;;;;;1.55;1.20;;;22.30;59.00;;;;;;6275718;22;20319;-72
2022/08/15 03:21:12;;;;;;;0.90;0.90;;;22.30;59.10;;;;;;6275519;22;20424;-73
2022/08/15 03:23:46;;;;;;;1.58;1.30;;;22.30;59.20;;;;;;6275106;22;20447;-72
2022/08/15 03:26:12;;;;;;;1.38;1.20;;;22.20;59.30;;;;;;6275134;22;20018;-72
2022/08/15 03:28:37;;;;;;;1.30;1.20;;;22.10;59.40;;;;;;6247725;22;20039;-72
2022/08/15 03:31:06;;;;;;;1.60;1.27;;;22.10;59.50;;;;;;6274426;22;20008;-72
2022/08/15 03:33:36;;;;;;;1.30;1.20;;;22.00;59.60;;;;;;6272199;22;20035;-72
2022/08/15 03:36:03;;;;;;;1.30;1.20;;;22.10;59.70;;;;;;6274821;22;20039;-72
2022/08/15 03:38:28;;;;;;;1.52;1.30;;;22.00;59.80;;;;;;6247703;22;20444;-72
2022/08/15 03:40:54;;;;;;;1.27;1.17;;;21.90;59.90;;;;;;6247782;22;20008;-72
2022/08/15 03:43:27;;;;;;;1.58;1.35;;;21.90;60.00;;;;;;6247579;22;20392;-72
2022/08/15 03:45:55;;;;;;;1.25;1.02;;;21.80;60.10;;;;;;6274575;22;20024;-72
2022/08/15 03:48:23;;;;;;;1.30;1.20;;;21.70;60.20;;;;;;6275024;22;20332;-74
2022/08/15 03:50:53;;;;;;;1.77;1.40;;;21.70;60.40;;;;;;6247377;22;20012;-75
2022/08/15 03:53:18;;;;;;;1.60;1.30;;;21.70;60.50;;;;;;6274616;22;20015;-74
2022/08/15 03:55:45;;;;;;;1.42;1.30;;;21.60;60.60;;;;;;6275269;22;20007;-74
2022/08/15 03:58:12;;;;;;;1.45;1.30;;;21.50;60.70;;;;;;6248340;22;20004;-74
2022/08/15 04:00:43;;;;;;;1.75;1.35;;;21.50;60.80;;;;;;6275055;22;20015;-74
2022/08/15 04:03:16;;;;;;;1.35;1.20;;;21.50;60.90;;;;;;6274779;22;20003;-74
2022/08/15 04:05:49;;;;;;;1.52;1.27;;;21.40;61.00;;;;;;6247716;22;20493;-74
2022/08/15 04:08:17;;;;;;;1.35;1.25;;;21.40;61.10;;;;;;6274730;22;20086;-74
2022/08/15 04:10:46;;;;;;;1.30;1.10;;;21.30;61.20;;;;;;6275188;22;20011;-74
2022/08/15 04:13:13;;;;;;;1.48;1.33;;;21.30;61.30;;;;;;6274911;22;20008;-74
2022/08/15 04:15:41;;;;;;;1.70;1.30;;;21.20;61.30;;;;;;6224266;22;20012;-74
2022/08/15 04:18:07;;;;;;;1.60;1.45;;;21.20;61.50;;;;;;6276413;22;20004;-74
2022/08/15 04:20:32;;;;;;;1.30;1.20;;;21.20;61.60;;;;;;6276622;22;20343;-74
2022/08/15 04:22:59;;;;;;;1.50;1.20;;;21.20;61.60;;;;;;6276807;22;20012;-74
2022/08/15 04:25:35;;;;;;;1.33;1.23;;;21.20;61.70;;;;;;6275797;22;20022;-74
2022/08/15 04:28:03;;;;;;;1.20;1.10;;;21.20;61.70;;;;;;6249629;22;20443;-74
2022/08/15 04:30:32;;;;;;;1.20;1.08;;;21.20;61.70;;;;;;6249386;22;20094;-74
2022/08/15 04:33:21;;;;;;;1.33;1.23;;;21.20;61.70;;;;;;6275999;22;20041;-74
2022/08/15 04:35:51;;;;;;;2.33;1.30;;;21.20;61.90;;;;;;6275705;22;20432;-75
2022/08/15 04:38:17;;;;;;;1.70;1.38;;;21.20;61.90;;;;;;6249280;22;20370;-74
2022/08/15 04:40:44;;;;;;;1.73;1.33;;;21.20;61.80;;;;;;6248885;22;20437;-74
2022/08/15 04:43:11;;;;;;;2.08;1.60;;;21.30;62.00;;;;;;6276420;22;20012;-74
2022/08/15 04:45:40;;;;;;;1.75;1.50;;;21.20;61.90;;;;;;6276298;22;20016;-74
2022/08/15 04:48:06;;;;;;;1.40;1.20;;;21.20;62.00;;;;;;6273259;22;20008;-74
2022/08/15 04:50:36;;;;;;;1.33;1.20;;;21.20;62.00;;;;;;6275564;22;20061;-74
2022/08/15 04:53:03;;;;;;;2.17;1.60;;;21.20;62.10;;;;;;6276184;22;20003;-74
2022/08/15 04:55:29;;;;;;;1.65;1.38;;;21.20;62.10;;;;;;6275756;22;20007;-74
2022/08/15 04:57:56;;;;;;;1.77;1.52;;;21.20;62.20;;;;;;6249392;22;20079;-74
2022/08/15 05:00:27;;;;;;;1.52;1.40;;;21.20;62.30;;;;;;6276128;22;20012;-74
2022/08/15 05:03:05;;;;;;;2.17;1.60;;;21.30;62.40;;;;;;6243817;22;20019;-74
2022/08/15 05:05:35;;;;;;;2.47;1.67;;;21.30;62.50;;;;;;6275662;22;20024;-74
2022/08/15 05:08:00;;;;;;;2.05;1.52;;;21.30;62.60;;;;;;6275776;22;20467;-74
2022/08/15 05:10:27;;;;;;;2.28;1.80;;;21.20;62.60;;;;;;6249014;22;20008;-74
2022/08/15 05:12:53;;;;;;;2.13;1.75;;;21.20;62.70;;;;;;6276110;22;20014;-74
2022/08/15 05:15:20;;;;;;;1.60;1.48;;;21.10;62.70;;;;;;6276263;22;20023;-74
2022/08/15 05:17:47;;;;;;;2.55;1.83;;;21.20;62.90;;;;;;6275795;22;20011;-74
2022/08/15 05:20:17;;;;;;;3.00;1.92;;;21.20;62.90;;;;;;6275552;22;20446;-74
2022/08/15 05:23:04;;;;;;;2.13;1.70;;;21.20;63.00;;;;;;6248651;22;20483;-74
2022/08/15 05:25:32;;;;;;;1.83;1.58;;;21.20;63.00;;;;;;6275727;22;20019;-74
2022/08/15 05:27:59;;;;;;;2.45;1.80;;;21.20;62.90;;;;;;6276318;22;20083;-74
2022/08/15 05:30:25;;;;;;;2.60;1.67;;;21.20;62.90;;;;;;6275754;22;20416;-72
2022/08/15 05:33:04;;;;;;;1.73;1.48;;;21.20;63.00;;;;;;6248357;22;20107;-74
2022/08/15 05:35:30;;;;;;;1.75;1.33;;;21.10;63.00;;;;;;6275919;22;20027;-74
2022/08/15 05:37:59;;;;;;;1.67;1.38;;;21.20;63.10;;;;;;6275779;22;20007;-74
2022/08/15 05:40:27;;;;;;;1.42;1.33;;;21.10;63.00;;;;;;6275897;22;20019;-74
2022/08/15 05:43:04;;;;;;;1.30;1.20;;;21.10;62.90;;;;;;6276446;22;20368;-74
2022/08/15 05:45:46;;;;;;;2.78;1.50;;;21.10;62.90;;;;;;6275878;22;20011;-74
2022/08/15 05:48:18;;;;;;;1.30;1.20;;;21.20;63.00;;;;;;6275887;22;20014;-75
2022/08/15 05:50:52;;;;;;;1.25;1.15;;;21.20;62.80;;;;;;6276024;22;20007;-74
2022/08/15 05:53:36;;;;;;;1.45;1.10;;;21.20;62.80;;;;;;6274307;22;20004;-74
2022/08/15 05:56:14;;;;;;;1.38;1.13;;;21.20;62.70;;;;;;6273918;22;20007;-75
2022/08/15 05:59:04;;;;;;;1.20;1.10;;;21.20;63.30;;;;;;6275545;22;20032;-74
2022/08/15 06:01:39;;;;;;;0.93;0.88;;;21.20;62.60;;;;;;6273624;22;20042;-74
2022/08/15 06:04:11;;;;;;;1.30;1.20;;;21.20;62.50;;;;;;6248469;22;20011;-75
2022/08/15 06:06:42;;;;;;;0.80;0.80;;;21.30;62.50;;;;;;6276322;22;20015;-74
2022/08/15 06:09:23;;;;;;;;;;;21.30;62.40;;;;;;6276474;22;20012;-75
2022/08/15 06:11:53;;;;;;;1.10;1.00;;;21.30;62.30;;;;;;6275244;22;19911;-74
2022/08/15 06:14:30;;;;;;;0.90;0.90;;;21.40;62.20;;;;;;6275723;22;20011;-74
2022/08/15 06:17:03;;;;;;;0.88;0.88;;;21.50;62.20;;;;;;6248354;22;20027;-74
2022/08/15 06:19:37;;;;;;;0.75;0.75;;;21.40;62.00;;;;;;6248542;22;20086;-74
2022/08/15 06:22:17;;;;;;;0.80;0.80;;;21.40;61.90;;;;;;6273736;22;20521;-74
2022/08/15 06:25:14;;;;;;;0.90;0.90;;;21.40;61.80;;;;;;6275632;22;20031;-74
2022/08/15 06:28:02;;;;;;;0.77;0.77;;;21.50;61.80;;;;;;6252240;22;20008;-74
2022/08/15 06:30:47;;;;;;;0.85;0.75;;;21.60;61.70;;;;;;6252453;22;20039;-74
2022/08/15 06:33:27;;;;;;;0.73;0.73;;;21.70;61.50;;;;;;6275479;22;20038;-74
2022/08/15 06:36:04;;;;;;;1.05;0.95;;;21.70;61.20;;;;;;6273505;22;20000;-74
2022/08/15 06:38:45;;;;;;;0.88;0.88;;;21.80;61.10;;;;;;6245788;22;20010;-74
2022/08/15 06:41:35;;;;;;;0.95;0.90;;;21.90;61.00;;;;;;6246695;22;20042;-74
2022/08/15 06:44:01;;;;;;;1.48;0.93;;;22.00;60.90;;;;;;6272590;22;20042;-74
2022/08/15 06:46:32;;;;;;;0.85;0.85;;;22.00;60.70;;;;;;6276032;22;20079;-74
2022/08/15 06:49:03;;;;;;;0.90;0.85;;;22.00;60.60;;;;;;6275467;22;20018;-74
2022/08/15 06:51:31;;;;;;;0.70;0.70;;;22.10;60.50;;;;;;6249769;22;20065;-74
2022/08/15 06:53:59;;;;;;;0.90;0.90;;;22.20;60.30;;;;;;6275721;22;20038;-75
2022/08/15 06:56:54;;;;;;;0.80;0.80;;;22.30;60.10;;;;;;6249567;22;20007;-74
2022/08/15 06:59:35;;;;;;;0.90;0.88;;;22.40;60.00;;;;;;6273024;22;20320;-74
2022/08/15 07:02:39;;;;;;;0.60;0.60;;;22.50;59.90;;;;;;6275090;22;20008;-74
2022/08/15 07:05:24;;;;;;;1.08;0.82;;;22.60;59.70;;;;;;6250388;22;20015;-74
2022/08/15 07:07:57;;;;;;;0.80;0.80;;;22.60;59.60;;;;;;6272556;22;20008;-74
2022/08/15 07:10:35;;;;;;;1.02;0.70;;;22.70;59.50;;;;;;6274847;22;20007;-74
2022/08/15 07:13:15;;;;;;;0.80;0.77;;;22.80;59.50;;;;;;6248257;22;20007;-74
2022/08/15 07:15:53;;;;;;;0.80;0.80;;;22.90;59.50;;;;;;6273557;22;20000;-74
2022/08/15 07:18:45;;;;;;;0.85;0.82;;;22.90;59.40;;;;;;6245322;22;20004;-74
2022/08/15 07:21:16;;;;;;;0.60;0.60;;;23.00;59.30;;;;;;6273770;22;20189;-74
2022/08/15 07:24:11;;;;;;;0.75;0.70;;;23.00;59.20;;;;;;6248010;22;20007;-74
2022/08/15 07:26:59;;;;;;;0.77;0.77;;;23.10;59.20;;;;;;6272806;22;20369;-75
2022/08/15 07:29:38;;;;;;;0.80;0.77;;;23.20;59.10;;;;;;6273251;22;20336;-74
2022/08/15 07:32:25;;;;;;;0.77;0.70;;;23.20;59.00;;;;;;6274974;22;20030;-75
2022/08/15 07:35:04;;;;;;;0.60;0.60;;;23.30;59.00;;;;;;6245049;22;20105;-74
2022/08/15 07:37:33;;;;;;;0.68;0.60;;;23.30;59.00;;;;;;6273803;22;20046;-74
2022/08/15 07:40:04;;;;;;;0.75;0.75;;;23.40;58.90;;;;;;6274767;22;20091;-75
2022/08/15 07:42:38;;;;;;;0.90;0.60;;;23.40;58.80;;;;;;6275004;22;20037;-74
2022/08/15 07:45:10;;;;;;;0.93;0.90;;;23.40;58.70;;;;;;6247856;22;20019;-74
2022/08/15 07:47:36;;;;;;;0.77;0.77;;;23.40;58.70;;;;;;6272383;22;20109;-75
2022/08/15 07:50:22;;;;;;;1.33;1.00;;;23.50;58.70;;;;;;6276152;22;20055;-74
2022/08/15 07:53:04;;;;;;;1.02;0.90;;;23.60;58.70;;;;;;6276256;22;20008;-74
2022/08/15 07:55:31;;;;;;;0.82;0.80;;;23.60;58.60;;;;;;6276225;22;20003;-75
2022/08/15 07:58:03;;;;;;;0.73;0.70;;;23.70;58.50;;;;;;6275897;22;20003;-75
2022/08/15 08:00:31;;;;;;;0.98;0.90;;;23.80;58.30;;;;;;6276731;22;20053;-74
2022/08/15 08:03:08;;;;;;;0.77;0.77;;;23.90;58.20;;;;;;6276397;22;20007;-74
2022/08/15 08:05:44;;;;;;;0.80;0.80;;;24.00;58.10;;;;;;6276214;22;20394;-75
2022/08/15 08:08:11;;;;;;;0.85;0.85;;;24.10;57.90;;;;;;6273425;22;20012;-75
2022/08/15 08:10:45;;;;;;;0.98;0.98;;;24.20;57.90;;;;;;6249121;22;20011;-75
2022/08/15 08:13:39;;;;;;;1.10;1.00;;;24.20;57.70;;;;;;6273883;22;20004;-75
2022/08/15 08:16:24;;;;;;;1.50;0.90;;;24.30;57.60;;;;;;6252653;22;20110;-74
2022/08/15 08:19:02;;;;;;;1.00;0.90;;;24.40;57.50;;;;;;6248217;22;20106;-75
2022/08/15 08:21:52;;;;;;;0.80;0.80;;;24.40;57.50;;;;;;6251598;22;20386;-75
2022/08/15 08:24:41;;;;;;;1.00;0.88;;;24.50;57.40;;;;;;6274509;22;20012;-75
2022/08/15 08:27:30;;;;;;;1.52;0.93;;;24.60;57.40;;;;;;6275549;22;20078;-72
2022/08/15 08:30:10;;;;;;;1.65;0.95;;;24.60;57.40;;;;;;6272810;22;20316;-73
2022/08/15 08:32:45;;;;;;;1.40;0.95;;;24.60;57.50;;;;;;6275569;22;20045;-73
2022/08/15 08:35:41;;;;;;;1.23;0.90;;;24.60;57.50;;;;;;6273152;22;20086;-73
2022/08/15 08:38:28;;;;;;;0.90;0.70;;;24.60;57.50;;;;;;6243239;22;20425;-73
2022/08/15 08:41:34;;;;;;;0.80;0.80;;;24.50;57.50;;;;;;6248686;22;20011;-72
2022/08/15 08:44:19;;;;;;;1.00;0.90;;;24.60;57.40;;;;;;6273351;22;20014;-73
2022/08/15 08:46:59;;;;;;;1.20;1.10;;;24.70;57.40;;;;;;6273536;22;20018;-73
2022/08/15 08:49:41;;;;;;;2.10;1.20;;;24.70;57.40;;;;;;6275685;22;20011;-73
2022/08/15 08:52:24;;;;;;;0.77;0.77;;;24.60;57.80;;;;;;6246326;22;20012;-72
2022/08/15 08:55:04;;;;;;;1.30;1.00;;;24.70;57.50;;;;;;6274636;22;20042;-72
2022/08/15 08:57:37;;;;;;;1.48;1.10;;;24.70;57.30;;;;;;6273560;22;20004;-73
2022/08/15 09:00:12;;;;;;;1.55;1.30;;;24.80;57.20;;;;;;6244591;22;20059;-73
2022/08/15 09:02:50;;;;;;;1.55;1.30;;;24.80;57.20;;;;;;6274590;22;20007;-73
2022/08/15 09:05:41;;;;;;;2.08;1.40;;;24.90;57.20;;;;;;6273042;22;20019;-73
2022/08/15 09:08:14;;;;;;;1.92;1.30;;;24.90;57.10;;;;;;6274954;22;20011;-73
2022/08/15 09:10:44;;;;;;;2.42;1.20;;;25.00;57.10;;;;;;6275713;22;20016;-73
2022/08/15 09:15:51;;;;;;;1.63;1.38;;;25.00;57.00;;;;;;6275780;22;20398;-73
2022/08/15 09:18:26;;;;;;;1.25;1.10;;;25.20;56.90;;;;;;6246090;22;19999;-73
2022/08/15 09:20:52;;;;;;;1.40;1.30;;;25.40;56.70;;;;;;6274040;22;20011;-73
2022/08/15 09:23:17;;;;;;;1.20;1.08;;;25.40;56.50;;;;;;6276153;22;20100;-73
2022/08/15 09:26:07;;;;;;;1.23;1.00;;;25.40;56.40;;;;;;6248744;22;20094;-72
2022/08/15 09:28:37;;;;;;;0.80;0.80;;;25.50;56.40;;;;;;6273726;22;20008;-73
2022/08/15 09:31:15;;;;;;;1.17;1.08;;;25.60;56.50;;;;;;6273398;22;20008;-73
2022/08/15 09:34:05;;;;;;;1.30;1.08;;;25.60;56.30;;;;;;6274574;22;20035;-73
2022/08/15 09:37:05;;;;;;;1.15;1.05;;;25.70;56.30;;;;;;6275562;22;20436;-73
2022/08/15 09:39:54;;;;;;;1.73;1.15;;;25.80;56.30;;;;;;6275062;22;20003;-73
2022/08/15 09:42:48;;;;;;;1.10;1.00;;;25.70;56.20;;;;;;6273148;22;20007;-73
2022/08/15 09:45:32;;;;;;;1.02;0.80;;;25.70;56.40;;;;;;6250538;22;20016;-72
2022/08/15 09:48:35;;;;;;;1.25;1.13;;;25.60;56.40;;;;;;6275589;22;20010;-73
2022/08/15 09:51:19;;;;;;;1.00;1.00;;;25.60;56.60;;;;;;6275242;22;20011;-73
2022/08/15 09:54:18;;;;;;;1.50;1.10;;;25.50;56.80;;;;;;6247578;22;20008;-73
2022/08/15 09:56:44;;;;;;;1.65;1.15;;;25.40;56.90;;;;;;6274550;22;20442;-73
2022/08/15 09:59:19;;;;;;;1.17;1.10;;;25.50;57.00;;;;;;6275434;22;20435;-73
2022/08/15 10:02:07;;;;;;;1.55;1.20;;;25.40;56.90;;;;;;6275859;22;20016;-73
2022/08/15 10:05:06;;;;;;;1.63;1.30;;;25.40;57.00;;;;;;6248043;22;20026;-73
2022/08/15 10:07:46;;;;;;;1.70;1.40;;;25.40;57.10;;;;;;6253036;22;20030;-73
2022/08/15 10:10:18;;;;;;;1.83;1.30;;;25.40;57.30;;;;;;6273345;22;20014;-73
2022/08/15 10:13:21;;;;;;;1.20;1.10;;;25.30;57.30;;;;;;6275360;22;20035;-73
2022/08/15 10:15:47;;;;;;;1.30;1.20;;;25.30;57.40;;;;;;6274576;22;20032;-73
2022/08/15 10:18:55;;;;;;;1.98;1.30;;;25.20;57.40;;;;;;6276366;22;20007;-73
2022/08/15 10:21:30;;;;;;;1.30;1.20;;;25.20;57.50;;;;;;6266406;22;20440;-73
2022/08/15 10:23:57;;;;;;;1.48;1.20;;;25.20;57.60;;;;;;6273446;22;20035;-73
2022/08/15 10:26:31;;;;;;;1.38;1.27;;;25.20;57.60;;;;;;6275686;22;20087;-73
2022/08/15 10:29:30;;;;;;;1.52;1.08;;;25.10;57.70;;;;;;6274033;22;20007;-73
2022/08/15 10:31:59;;;;;;;1.67;1.20;;;25.20;57.90;;;;;;6273003;22;20081;-73
2022/08/15 10:34:37;;;;;;;1.30;1.20;;;25.10;57.90;;;;;;6273697;22;20007;-73
2022/08/15 10:37:21;;;;;;;3.08;1.10;;;25.10;57.90;;;;;;6274425;22;20012;-73
2022/08/15 10:40:12;;;;;;;1.33;1.20;;;25.10;58.10;;;;;;6274184;22;20031;-73
2022/08/15 10:43:02;;;;;;;1.65;1.38;;;25.00;58.30;;;;;;6275209;22;20027;-73
2022/08/15 10:45:37;;;;;;;;;;;25.00;58.40;;;;;;6273515;22;20386;-73
2022/08/15 10:48:20;;;;;;;1.30;1.20;;;24.90;58.30;;;;;;6275431;22;19907;-73
2022/08/15 10:51:02;;;;;;;1.85;1.20;;;25.00;58.40;;;;;;6274576;22;20042;-74
2022/08/15 10:53:47;;;;;;;1.95;1.40;;;25.10;58.30;;;;;;6273037;22;20049;-74
2022/08/15 10:56:20;;;;;;;2.10;1.67;;;25.20;58.20;;;;;;6241046;22;20007;-74
2022/08/15 10:58:47;;;;;;;1.63;1.38;;;25.20;58.00;;;;;;6275994;22;20013;-74
2022/08/15 11:01:20;;;;;;;1.50;1.30;;;25.20;58.00;;;;;;6275603;22;20058;-73
2022/08/15 11:03:58;;;;;;;1.20;1.00;;;25.40;58.00;;;;;;6275293;22;20018;-73
2022/08/15 11:06:25;;;;;;;3.00;1.65;;;25.40;57.80;;;;;;6222393;22;20012;-74
2022/08/15 11:09:06;;;;;;;2.17;1.60;;;25.60;57.80;;;;;;6275305;22;20161;-74
2022/08/15 11:11:35;;;;;;;;;;;25.60;57.90;;;;;;6244592;22;20008;-73
2022/08/15 11:14:10;;;;;;;2.38;1.50;;;25.70;57.80;;;;;;6247985;22;20294;-73
2022/08/15 11:16:40;;;;;;;1.83;1.50;;;25.70;57.70;;;;;;6272301;22;20015;-74
2022/08/15 11:19:28;;;;;;;2.67;1.80;;;25.70;57.60;;;;;;6263502;22;20004;-73
2022/08/15 11:21:57;;;;;;;1.77;1.50;;;25.70;57.80;;;;;;6275320;22;20016;-73
2022/08/15 11:24:30;;;;;;;1.25;1.15;;;25.60;57.90;;;;;;6248215;22;20008;-73
2022/08/15 11:27:17;;;;;;;1.88;1.60;;;25.60;58.10;;;;;;6275178;22;20011;-73
2022/08/15 11:29:46;;;;;;;1.85;1.70;;;25.70;58.10;;;;;;6274525;22;20003;-73
2022/08/15 11:32:22;;;;;;;1.65;1.55;;;25.70;58.00;;;;;;6275771;22;20004;-73
2022/08/15 11:34:51;;;;;;;2.30;1.75;;;25.70;58.00;;;;;;6243548;22;20095;-73
2022/08/15 11:37:28;;;;;;;1.83;1.63;;;25.70;58.10;;;;;;6274967;22;20007;-73
2022/08/15 11:40:01;;;;;;;2.10;1.58;;;25.70;58.30;;;;;;6272924;22;20509;-73
2022/08/15 11:42:30;;;;;;;1.73;1.63;;;25.60;58.40;;;;;;6275361;22;20069;-73
2022/08/15 11:45:04;;;;;;;2.17;1.70;;;25.60;58.60;;;;;;6275432;22;20038;-74
2022/08/15 11:47:33;;;;;;;1.88;1.60;;;25.60;58.70;;;;;;6274900;22;20015;-73
2022/08/15 11:50:03;;;;;;;2.53;1.90;;;25.60;58.70;;;;;;6274873;22;20446;-74
2022/08/15 11:52:31;;;;;;;;;;;25.60;58.80;;;;;;6275512;22;20427;-74
2022/08/15 11:55:17;;;;;;;1.40;1.30;;;25.60;58.70;;;;;;6247760;22;19961;-73
2022/08/15 11:57:47;;;;;;;1.83;1.50;;;25.60;58.70;;;;;;6248035;22;20016;-73
2022/08/15 12:00:34;;;;;;;1.80;1.38;;;25.70;58.60;;;;;;6274834;22;20065;-73
2022/08/15 12:03:32;;;;;;;1.50;1.40;;;25.80;58.60;;;;;;6274827;22;20008;-73
2022/08/15 12:06:18;;;;;;;2.17;1.25;;;25.80;59.10;;;;;;6272754;22;20019;-73
2022/08/15 12:08:46;;;;;;;1.50;1.40;;;25.80;58.50;;;;;;6275129;22;20061;-73
2022/08/15 12:11:21;;;;;;;2.13;1.40;;;25.80;58.60;;;;;;6275324;22;20065;-73
2022/08/15 12:14:12;;;;;;;2.08;1.50;;;25.80;58.60;;;;;;6274726;22;20431;-74
2022/08/15 12:16:44;;;;;;;1.95;1.60;;;25.80;58.60;;;;;;6270570;22;20003;-72
2022/08/15 12:19:38;;;;;;;1.30;1.20;;;25.80;58.70;;;;;;6271746;22;20032;-74
2022/08/15 12:22:10;;;;;;;2.03;1.30;;;25.80;58.80;;;;;;6275095;22;20031;-73
2022/08/15 12:24:37;;;;;;;2.08;1.25;;;25.80;58.80;;;;;;6275084;22;20095;-73
2022/08/15 12:27:06;;;;;;;1.85;1.35;;;25.80;58.90;;;;;;6275042;22;20007;-73
2022/08/15 12:29:33;;;;;;;2.63;1.33;;;25.80;59.00;;;;;;6274599;22;20004;-73
2022/08/15 12:32:02;;;;;;;1.40;1.30;;;25.80;59.00;;;;;;6274516;22;20325;-75
2022/08/15 12:34:38;;;;;;;1.70;1.50;;;25.80;59.10;;;;;;6275677;22;20004;-74
2022/08/15 12:37:07;;;;;;;1.50;1.40;;;25.80;59.10;;;;;;6276252;22;20007;-74
2022/08/15 12:39:37;;;;;;;1.42;1.20;;;25.80;59.10;;;;;;6276581;22;20004;-74
2022/08/15 12:42:03;;;;;;;1.90;1.40;;;25.80;59.10;;;;;;6276514;22;20008;-73
2022/08/15 12:44:35;;;;;;;1.27;1.17;;;25.80;58.90;;;;;;6248887;22;20428;-74
2022/08/15 12:47:01;;;;;;;1.27;1.17;;;26.00;58.90;;;;;;6275664;22;20424;-74
2022/08/15 12:49:26;;;;;;;1.33;1.23;;;26.00;58.80;;;;;;6276000;22;20075;-74
2022/08/15 12:51:52;;;;;;;1.52;1.30;;;26.00;58.80;;;;;;6276329;22;20091;-74
2022/08/15 12:54:18;;;;;;;1.25;1.15;;;26.00;58.80;;;;;;6276218;22;20090;-74
2022/08/15 12:56:44;;;;;;;1.50;1.20;;;26.00;58.80;;;;;;6248808;22;20012;-74
2022/08/15 12:59:12;;;;;;;1.40;1.08;;;26.00;58.80;;;;;;6276494;22;20003;-74
2022/08/15 13:01:40;;;;;;;1.30;1.13;;;26.10;58.80;;;;;;6249663;22;20015;-74
2022/08/15 13:04:10;;;;;;;1.20;1.08;;;26.10;58.80;;;;;;6276447;22;20004;-74
2022/08/15 13:06:44;;;;;;;1.30;1.20;;;26.20;58.70;;;;;;6248694;22;20028;-74
2022/08/15 13:09:10;;;;;;;1.00;1.00;;;26.20;58.60;;;;;;6248893;22;20011;-73
2022/08/15 13:11:39;;;;;;;1.75;1.20;;;26.20;58.50;;;;;;6275718;22;20094;-74
2022/08/15 13:14:08;;;;;;;1.40;1.30;;;26.30;58.50;;;;;;6276133;22;20053;-74
2022/08/15 13:16:35;;;;;;;1.20;1.10;;;26.20;58.40;;;;;;6276070;22;20008;-74
2022/08/15 13:19:03;;;;;;;1.50;1.30;;;26.30;58.60;;;;;;6248614;22;20054;-73
2022/08/15 13:24:06;;;;;;;1.38;1.10;;;26.20;58.60;;;;;;6275820;22;20446;-74
2022/08/15 13:26:35;;;;;;;1.10;1.00;;;26.20;58.50;;;;;;6275922;22;20090;-74
2022/08/15 13:29:01;;;;;;;1.20;1.10;;;26.30;58.60;;;;;;6275486;22;20035;-73
2022/08/15 13:31:28;;;;;;;1.48;1.20;;;26.30;58.50;;;;;;6248828;22;20008;-74